Detalii statie UNIC PROD [00001D09]

Toti senzorii

Date Temperatura solului [C]Precipitatii [mm]Voltaj baterie [mV]Leaf Wetness [Min]HC Air temperature [C]HC Relative humidity [%]Punctul de roua [C]
medieminmaxsumaultimatimpmedieminmaxmediemediemin
2018-12-09 15:00:00 0 6932 3.67 3.43 3.95 100 3.6 3.4
2018-12-09 16:00:00 0 6904 3.86 3.52 4.05 100 3.8 3.5
2018-12-09 17:00:00 0 6874 3.57 3.41 3.74 100 3.5 3.4
2018-12-09 18:00:00 0 6854 2.55 2.04 3.47 100 2.5 2
2018-12-09 19:00:00 0 6834 0.92 0.18 1.59 100 0.8 0.1
2018-12-09 20:00:00 0 6834 0.56 0.09 1.16 100 0.5 0
2018-12-09 21:00:00 0 6826 0.92 0.13 1.28 100 0.8 0.1
2018-12-09 22:00:00 0 6816 -0.25 -0.63 0.13 100 -0.1 -0.5
2018-12-09 23:00:00 0 6816 -0.62 -1.16 -0.14 100 -0.4 -1
2018-12-10 00:00:00 0 6816 -0.69 -1.16 0.05 100 -0.5 -1
2018-12-10 01:00:00 0 6806 -1.78 -2.61 -1.07 100 -1.6 -2.5
2018-12-10 02:00:00 0 6806 -2.03 -2.44 -1.32 100 -1.8 -2.3
2018-12-10 03:00:00 0 6806 -2.7 -3.07 -2.33 100 -2.5 -2.9
2018-12-10 04:00:00 0 6806 -2.05 -2.92 -1.2 100 -1.9 -2.8
2018-12-10 05:00:00 0 6796 -1.26 -2.24 -0.87 100 -1.1 -2.1
2018-12-10 06:00:00 0 6806 -1.01 -1.19 -0.88 100 -0.8 -1
2018-12-10 07:00:00 0 6806 -1.24 -1.34 -1.13 100 -1.1 -1.2
2018-12-10 08:00:00 0 6806 -1.35 -1.52 -1.19 100 -1.2 -1.4
2018-12-10 09:00:00 0 6854 -1.14 -1.3 -1 100 -1 -1.2
2018-12-10 10:00:00 0 6942 -0.93 -1.02 -0.74 100 -0.7 -0.9
2018-12-10 11:00:00 0.2 7060 -0.23 -0.57 -0.05 100 -0.1 -0.4
2018-12-10 12:00:00 0 7060 0.16 0.01 0.44 100 0.1 0
2018-12-10 13:00:00 0 7108 0.83 0.44 1.19 100 0.7 0.4
2018-12-10 14:00:00 0 7216 1.59 1.22 1.94 100 1.5 1.2
2018-12-10 15:00:00 0 7080 1.97 1.77 2.16 100 1.9 1.7
2018-12-10 16:00:00 0 7000 1.65 1.42 2.05 100 1.6 1.4
2018-12-10 17:00:00 0 6952 0.69 0.35 1.45 100 0.6 0.3
2018-12-10 18:00:00 0 6922 1.2 0.83 1.4 100 1.1 0.8
2018-12-10 19:00:00 0 6914 0.97 0.85 1.23 100 0.9 0.8
2018-12-10 20:00:00 0 6894 1.24 0.78 1.6 100 1.2 0.7
2018-12-10 21:00:00 0 6874 0.31 -0.72 1.21 100 0.3 -0.6
2018-12-10 22:00:00 0 6864 0.14 -0.59 0.61 100 0.1 -0.4
2018-12-10 23:00:00 0 6844 0.36 -0.16 1.1 100 0.3 0
2018-12-11 00:00:00 0 6834 1.17 0.99 1.39 100 1.1 0.9
2018-12-11 01:00:00 0 6826 1.01 0.54 1.55 100 0.9 0.5
2018-12-11 02:00:00 0 6816 0.95 0.33 1.33 100 0.9 0.3
2018-12-11 03:00:00 0 6816 0.37 0.19 0.81 100 0.3 0.1
2018-12-11 04:00:00 0 6816 0.07 0.01 0.18 100 0 0
2018-12-11 05:00:00 0 6806 0.75 0.08 1.19 100 0.6 0
2018-12-11 06:00:00 0 6816 1.38 1.06 1.75 100 1.3 1
2018-12-11 07:00:00 0 6806 1.6 1.13 1.76 100 1.5 1.1
2018-12-11 08:00:00 0 6816 1.6 1.45 1.87 100 1.5 1.4
2018-12-11 09:00:00 0 6816 1.96 1.82 2.03 100 1.9 1.8
2018-12-11 10:00:00 0 6816 2.32 2.13 2.42 100 2.3 2.1
2018-12-11 11:00:00 0 6854 2.95 2.53 3.31 100 2.9 2.5
2018-12-11 12:00:00 0 6854 3.18 3 3.5 100 3.1 3
2018-12-11 13:00:00 0 6884 2.74 2.59 2.99 100 2.6 2.5
2018-12-11 14:00:00 0 6864 3.01 2.82 3.18 100 2.9 2.8